createdAt,value
2017-06-01T00:00:13.102Z,0
2017-06-01T00:01:23.099Z,0
2017-06-01T00:02:32.712Z,0
2017-06-01T00:03:42.002Z,0
2017-06-01T00:04:51.938Z,0
2017-06-01T00:06:02.184Z,0
2017-06-01T00:07:12.755Z,0
2017-06-01T00:08:22.684Z,0
2017-06-01T00:09:32.290Z,0
2017-06-01T00:10:42.290Z,0
2017-06-01T00:11:52.578Z,0
2017-06-01T00:13:02.032Z,0
2017-06-01T00:14:11.402Z,0
2017-06-01T00:15:21.337Z,0
2017-06-01T00:16:30.950Z,0
2017-06-01T00:17:41.680Z,0
2017-06-01T00:18:52.032Z,0
2017-06-01T00:20:01.953Z,0
2017-06-01T00:21:12.191Z,0
2017-06-01T00:22:22.113Z,0
2017-06-01T00:23:31.727Z,0
2017-06-01T00:24:41.755Z,0
2017-06-01T00:25:51.364Z,0
2017-06-01T00:27:01.590Z,0
2017-06-01T00:28:11.528Z,0
2017-06-01T00:29:21.139Z,0
2017-06-01T00:30:31.366Z,0
2017-06-01T00:31:41.278Z,0
2017-06-01T00:32:50.883Z,0
2017-06-01T00:33:59.882Z,0
2017-06-01T00:35:09.798Z,0
2017-06-01T00:36:19.414Z,0
2017-06-01T00:37:29.016Z,0
2017-06-01T00:38:38.324Z,0
2017-06-01T00:39:48.227Z,0
2017-06-01T00:40:58.153Z,0
2017-06-01T00:42:08.469Z,0
2017-06-01T00:43:18.078Z,0
2017-06-01T00:44:27.379Z,0
2017-06-01T00:45:36.999Z,0
2017-06-01T00:46:46.915Z,0
2017-06-01T00:47:56.519Z,0
2017-06-01T00:49:06.432Z,0
2017-06-01T00:50:16.350Z,0
2017-06-01T00:51:25.952Z,0
2017-06-01T00:52:35.867Z,0
2017-06-01T00:53:45.822Z,0
2017-06-01T00:54:56.046Z,0
2017-06-01T00:56:05.648Z,0
2017-06-01T00:57:15.871Z,0
2017-06-01T00:58:25.169Z,0
2017-06-01T00:59:35.426Z,0
2017-06-01T01:00:45.346Z,0
2017-06-01T01:01:55.276Z,0
2017-06-01T01:03:04.889Z,0
2017-06-01T01:04:14.805Z,0
2017-06-01T01:05:24.869Z,0
2017-06-01T01:06:35.102Z,0
2017-06-01T01:07:45.016Z,0
2017-06-01T01:08:54.929Z,0
2017-06-01T01:10:05.146Z,0
2017-06-01T01:11:15.217Z,0
2017-06-01T01:12:25.198Z,0
2017-06-01T01:13:35.422Z,0
2017-06-01T01:14:45.642Z,0
2017-06-01T01:15:55.580Z,0
2017-06-01T01:17:05.899Z,0
2017-06-01T01:18:16.122Z,0
2017-06-01T01:19:26.037Z,0
2017-06-01T01:20:35.338Z,0
2017-06-01T01:21:45.250Z,0
2017-06-01T01:22:55.171Z,0
2017-06-01T01:24:04.174Z,0
2017-06-01T01:25:14.480Z,0
2017-06-01T01:26:24.704Z,0
2017-06-01T01:27:34.917Z,0
2017-06-01T01:28:45.241Z,0
2017-06-01T01:29:55.472Z,0
2017-06-01T01:31:05.078Z,0
2017-06-01T01:32:14.994Z,0
2017-06-01T01:33:24.622Z,0
2017-06-01T01:34:34.686Z,0
2017-06-01T01:35:44.620Z,0
2017-06-01T01:36:54.546Z,0
2017-06-01T01:38:04.483Z,0
2017-06-01T01:39:14.729Z,0
2017-06-01T01:40:25.014Z,0
2017-06-01T01:41:34.937Z,0
2017-06-01T01:42:45.164Z,0
2017-06-01T01:43:55.072Z,0
2017-06-01T01:45:04.709Z,0
2017-06-01T01:46:14.373Z,0
2017-06-01T01:47:24.285Z,0
2017-06-01T01:48:33.893Z,0
2017-06-01T01:49:43.813Z,0
2017-06-01T01:50:54.071Z,0
2017-06-01T01:52:04.464Z,0
2017-06-01T01:53:14.681Z,0
2017-06-01T01:54:24.608Z,0
2017-06-01T01:55:34.214Z,0
2017-06-01T01:56:44.156Z,0
2017-06-01T01:57:53.761Z,0
2017-06-01T01:59:03.381Z,0
2017-06-01T02:00:12.693Z,0
2017-06-01T02:01:22.304Z,0
2017-06-01T02:02:31.932Z,0
2017-06-01T02:03:41.867Z,0
2017-06-01T02:05:11.318Z,0
2017-06-01T02:06:21.527Z,0
2017-06-01T02:07:31.436Z,0
2017-06-01T02:08:41.341Z,0
2017-06-01T02:09:51.248Z,0
2017-06-01T02:11:01.175Z,0
2017-06-01T02:12:11.170Z,0
2017-06-01T02:13:20.477Z,0
2017-06-01T02:14:30.193Z,0
2017-06-01T02:15:39.799Z,0
2017-06-01T02:16:49.707Z,0
2017-06-01T02:17:59.928Z,0
2017-06-01T02:19:09.822Z,0
2017-06-01T02:20:20.105Z,0
2017-06-01T02:21:29.714Z,0
2017-06-01T02:22:39.623Z,0
2017-06-01T02:23:49.833Z,0
2017-06-01T02:25:00.045Z,0
2017-06-01T02:26:10.110Z,0
2017-06-01T02:27:20.015Z,0
2017-06-01T02:28:29.613Z,0
2017-06-01T02:29:40.191Z,0
2017-06-01T02:30:50.107Z,0
2017-06-01T02:32:00.166Z,0
2017-06-01T02:33:10.073Z,0
2017-06-01T02:34:19.979Z,0
2017-06-01T02:35:29.876Z,0
2017-06-01T02:36:40.100Z,0
2017-06-01T02:37:50.484Z,0
2017-06-01T02:39:00.406Z,0
2017-06-01T02:40:10.313Z,0
2017-06-01T02:41:19.938Z,0
2017-06-01T02:42:29.859Z,0
2017-06-01T02:43:39.153Z,0
2017-06-01T02:44:49.060Z,0
2017-06-01T02:45:58.668Z,0
2017-06-01T02:47:08.575Z,0
2017-06-01T02:48:18.805Z,0
2017-06-01T02:49:29.376Z,0
2017-06-01T02:50:39.594Z,0
2017-06-01T02:51:49.490Z,0
2017-06-01T02:52:59.724Z,0
2017-06-01T02:54:09.326Z,0
2017-06-01T02:55:19.604Z,0
2017-06-01T02:56:29.204Z,0
2017-06-01T02:57:39.121Z,0
2017-06-01T02:58:49.329Z,0
2017-06-01T02:59:58.321Z,0
2017-06-01T03:01:08.599Z,0
2017-06-01T03:02:18.197Z,0
2017-06-01T03:03:28.159Z,0
2017-06-01T03:04:37.774Z,0
2017-06-01T03:05:47.669Z,0
2017-06-01T03:06:57.262Z,0
2017-06-01T03:08:07.173Z,0
2017-06-01T03:09:17.106Z,0
2017-06-01T03:10:27.017Z,0
2017-06-01T03:11:36.925Z,0
2017-06-01T03:12:46.246Z,0
2017-06-01T03:13:55.536Z,0
2017-06-01T03:15:05.459Z,0
2017-06-01T03:16:15.677Z,0
2017-06-01T03:17:25.599Z,0
2017-06-01T03:18:35.426Z,0
2017-06-01T03:19:45.636Z,0
2017-06-01T03:20:55.583Z,0
2017-06-01T03:22:05.206Z,0
2017-06-01T03:23:15.119Z,0
2017-06-01T03:24:24.465Z,0
2017-06-01T03:25:34.706Z,0
2017-06-01T03:26:44.610Z,0
2017-06-01T03:27:53.901Z,0
2017-06-01T03:29:03.813Z,0
2017-06-01T03:30:13.502Z,0
2017-06-01T03:31:23.717Z,0
2017-06-01T03:32:33.616Z,0
2017-06-01T03:33:43.515Z,0
2017-06-01T03:34:53.127Z,0
2017-06-01T03:36:02.897Z,0
2017-06-01T03:37:12.809Z,0
2017-06-01T03:38:23.044Z,0
2017-06-01T03:39:33.251Z,0
2017-06-01T03:40:42.863Z,0
2017-06-01T03:41:52.876Z,0
2017-06-01T03:43:02.797Z,0
2017-06-01T03:44:13.032Z,0
2017-06-01T03:45:23.275Z,0
2017-06-01T03:46:32.864Z,0
2017-06-01T03:47:43.273Z,0
2017-06-01T03:48:53.495Z,0
2017-06-01T03:50:03.736Z,0
2017-06-01T03:51:13.671Z,0
2017-06-01T03:52:23.580Z,0
2017-06-01T03:53:33.492Z,0
2017-06-01T03:54:43.423Z,0
2017-06-01T03:55:53.329Z,0
2017-06-01T03:57:03.238Z,0
2017-06-01T03:58:12.830Z,0
2017-06-01T03:59:23.197Z,0
2017-06-01T04:00:33.418Z,0
2017-06-01T04:01:43.641Z,0
2017-06-01T04:02:53.880Z,0
2017-06-01T04:04:04.095Z,0
2017-06-01T04:05:13.748Z,0
2017-06-01T04:06:23.960Z,0
2017-06-01T04:07:33.257Z,0
2017-06-01T04:08:43.180Z,0
2017-06-01T04:09:53.159Z,5
2017-06-01T04:11:03.564Z,5
2017-06-01T04:12:13.172Z,5
2017-06-01T04:13:22.572Z,5
2017-06-01T04:14:32.210Z,5
2017-06-01T04:15:42.438Z,5
2017-06-01T04:16:52.163Z,5
2017-06-01T04:18:02.082Z,5
2017-06-01T04:19:11.695Z,5
2017-06-01T04:20:21.910Z,5
2017-06-01T04:21:32.240Z,5
2017-06-01T04:22:42.833Z,5
2017-06-01T04:23:52.751Z,5
2017-06-01T04:25:02.669Z,5
2017-06-01T04:26:11.978Z,5
2017-06-01T04:27:21.870Z,5
2017-06-01T04:28:31.610Z,5
2017-06-01T04:29:41.519Z,5
2017-06-01T04:30:51.752Z,5
2017-06-01T04:32:01.369Z,5
2017-06-01T04:33:10.966Z,5
2017-06-01T04:34:21.360Z,5
2017-06-01T04:35:31.293Z,5
2017-06-01T04:36:40.903Z,5
2017-06-01T04:37:50.812Z,10
2017-06-01T04:39:00.719Z,10
2017-06-01T04:40:09.870Z,10
2017-06-01T04:41:19.518Z,10
2017-06-01T04:42:29.427Z,10
2017-06-01T04:43:38.428Z,10
2017-06-01T04:44:48.380Z,10
2017-06-01T04:45:58.596Z,10
2017-06-01T04:47:08.196Z,10
2017-06-01T04:48:18.166Z,10
2017-06-01T04:49:27.782Z,10
2017-06-01T04:50:38.004Z,10
2017-06-01T04:51:48.290Z,10
2017-06-01T04:52:57.607Z,10
2017-06-01T04:54:07.243Z,10
2017-06-01T04:55:16.871Z,10
2017-06-01T04:56:26.474Z,10
2017-06-01T04:57:35.798Z,10
2017-06-01T04:58:45.747Z,10
2017-06-01T04:59:55.730Z,10
2017-06-01T05:01:05.366Z,10
2017-06-01T05:02:15.000Z,10
2017-06-01T05:03:24.780Z,10
2017-06-01T05:04:35.015Z,10
2017-06-01T05:05:44.949Z,10
2017-06-01T05:06:55.182Z,15
2017-06-01T05:08:05.157Z,15
2017-06-01T05:09:14.753Z,15
2017-06-01T05:10:24.650Z,15
2017-06-01T05:11:34.560Z,15
2017-06-01T05:12:44.777Z,15
2017-06-01T05:13:55.004Z,20
2017-06-01T05:15:04.816Z,20
2017-06-01T05:16:14.751Z,20
2017-06-01T05:17:24.367Z,20
2017-06-01T05:18:34.288Z,25
2017-06-01T05:19:44.243Z,30
2017-06-01T05:20:53.701Z,30
2017-06-01T05:22:03.636Z,35
2017-06-01T05:23:13.956Z,35
2017-06-01T05:24:23.644Z,35
2017-06-01T05:25:33.273Z,35
2017-06-01T05:26:43.408Z,35
2017-06-01T05:27:53.711Z,35
2017-06-01T05:29:03.364Z,35
2017-06-01T05:30:12.663Z,35
2017-06-01T05:31:22.607Z,35
2017-06-01T05:32:32.728Z,35
2017-06-01T05:33:42.695Z,35
2017-06-01T05:34:52.362Z,35
2017-06-01T05:36:02.640Z,35
2017-06-01T05:37:11.978Z,40
2017-06-01T05:38:21.674Z,40
2017-06-01T05:39:31.590Z,40
2017-06-01T05:40:41.251Z,40
2017-06-01T05:41:51.525Z,40
2017-06-01T05:43:00.901Z,40
2017-06-01T05:44:10.523Z,40
2017-06-01T05:45:20.781Z,40
2017-06-01T05:46:30.433Z,40
2017-06-01T05:47:40.039Z,40
2017-06-01T05:48:49.967Z,40
2017-06-01T05:49:59.272Z,45
2017-06-01T05:51:09.190Z,40
2017-06-01T05:52:18.525Z,40
2017-06-01T05:53:27.822Z,40
2017-06-01T05:54:37.742Z,40
2017-06-01T05:55:47.348Z,45
2017-06-01T05:56:56.637Z,45
2017-06-01T05:58:06.926Z,45
2017-06-01T05:59:16.508Z,45
2017-06-01T06:00:26.117Z,45
2017-06-01T06:01:36.071Z,45
2017-06-01T06:02:45.688Z,45
2017-06-01T06:03:55.891Z,45
2017-06-01T06:05:06.106Z,45
2017-06-01T06:06:15.403Z,50
2017-06-01T06:07:25.673Z,50
2017-06-01T06:08:35.263Z,50
2017-06-01T06:09:45.256Z,50
2017-06-01T06:10:55.161Z,50
2017-06-01T06:12:05.416Z,50
2017-06-01T06:13:14.702Z,50
2017-06-01T06:14:24.314Z,50
2017-06-01T06:15:33.914Z,50
2017-06-01T06:16:43.810Z,50
2017-06-01T06:17:53.711Z,55
2017-06-01T06:19:03.177Z,55
2017-06-01T06:20:13.158Z,55
2017-06-01T06:21:22.765Z,55
2017-06-01T06:22:32.430Z,55
2017-06-01T06:23:42.053Z,55
2017-06-01T06:24:51.987Z,55
2017-06-01T06:26:01.580Z,55
2017-06-01T06:27:11.796Z,50
2017-06-01T06:28:22.014Z,50
2017-06-01T06:29:31.625Z,55
2017-06-01T06:30:41.383Z,55
2017-06-01T06:31:51.307Z,55
2017-06-01T06:33:01.526Z,55
2017-06-01T06:34:11.166Z,55
2017-06-01T06:35:20.163Z,55
2017-06-01T06:36:30.236Z,55
2017-06-01T06:37:40.145Z,55
2017-06-01T06:38:50.057Z,55
2017-06-01T06:39:59.363Z,55
2017-06-01T06:41:09.286Z,50
2017-06-01T06:42:19.362Z,45
2017-06-01T06:43:29.279Z,40
2017-06-01T06:44:39.190Z,40
2017-06-01T06:45:48.818Z,45
2017-06-01T06:46:58.427Z,45
2017-06-01T06:48:08.678Z,45
2017-06-01T06:49:18.594Z,45
2017-06-01T06:50:28.535Z,50
2017-06-01T06:51:38.442Z,55
2017-06-01T06:52:48.655Z,70
2017-06-01T06:53:58.114Z,70
2017-06-01T06:55:07.713Z,70
2017-06-01T06:56:17.644Z,75
2017-06-01T06:57:27.561Z,75
2017-06-01T06:58:37.463Z,75
2017-06-01T06:59:47.433Z,80
2017-06-01T07:00:57.680Z,85
2017-06-01T07:02:07.650Z,95
2017-06-01T07:03:16.946Z,140
2017-06-01T07:04:26.558Z,165
2017-06-01T07:05:36.927Z,155
2017-06-01T07:06:46.548Z,110
2017-06-01T07:07:56.765Z,95
2017-06-01T07:09:06.987Z,85
2017-06-01T07:10:17.213Z,85
2017-06-01T07:11:26.626Z,85
2017-06-01T07:12:36.577Z,85
2017-06-01T07:13:45.891Z,90
2017-06-01T07:14:55.831Z,105
2017-06-01T07:16:06.061Z,130
2017-06-01T07:17:15.374Z,265
2017-06-01T07:18:25.594Z,220
2017-06-01T07:19:35.495Z,110
2017-06-01T07:20:45.717Z,100
2017-06-01T07:21:55.631Z,95
2017-06-01T07:23:05.552Z,105
2017-06-01T07:24:15.773Z,95
2017-06-01T07:25:25.686Z,95
2017-06-01T07:26:35.907Z,95
2017-06-01T07:27:46.132Z,100
2017-06-01T07:28:56.518Z,100
2017-06-01T07:30:06.445Z,105
2017-06-01T07:31:16.059Z,105
2017-06-01T07:32:25.991Z,110
2017-06-01T07:33:35.940Z,105
2017-06-01T07:34:45.712Z,105
2017-06-01T07:35:55.625Z,110
2017-06-01T07:37:05.260Z,110
2017-06-01T07:38:14.881Z,110
2017-06-01T07:39:24.809Z,115
2017-06-01T07:40:34.894Z,115
2017-06-01T07:41:45.122Z,115
2017-06-01T07:42:55.043Z,120
2017-06-01T07:44:04.650Z,120
2017-06-01T07:45:13.967Z,120
2017-06-01T07:46:23.633Z,125
2017-06-01T07:47:33.251Z,125
2017-06-01T07:48:43.187Z,130
2017-06-01T07:49:53.130Z,135
2017-06-01T07:51:03.371Z,145
2017-06-01T07:52:13.353Z,155
2017-06-01T07:53:23.296Z,180
2017-06-01T07:54:33.542Z,335
2017-06-01T07:55:43.169Z,600
2017-06-01T07:56:53.097Z,605
2017-06-01T07:58:03.887Z,480
2017-06-01T07:59:13.863Z,440
2017-06-01T08:00:23.802Z,490
2017-06-01T08:01:33.732Z,515
2017-06-01T08:02:43.339Z,530
2017-06-01T08:03:53.095Z,525
2017-06-01T08:05:03.001Z,545
2017-06-01T08:06:12.617Z,550
2017-06-01T08:07:22.848Z,560
2017-06-01T08:08:33.073Z,590
2017-06-01T08:09:43.418Z,580
2017-06-01T08:10:53.039Z,615
2017-06-01T08:12:02.654Z,640
2017-06-01T08:13:12.564Z,690
2017-06-01T08:14:22.475Z,685
2017-06-01T08:15:31.989Z,655
2017-06-01T08:16:42.205Z,645
2017-06-01T08:17:52.118Z,635
2017-06-01T08:19:01.107Z,690
2017-06-01T08:20:10.726Z,735
2017-06-01T08:21:20.688Z,735
2017-06-01T08:22:30.300Z,780
2017-06-01T08:23:39.940Z,740
2017-06-01T08:24:49.857Z,770
2017-06-01T08:26:00.087Z,760
2017-06-01T08:27:10.490Z,740
2017-06-01T08:28:20.096Z,725
2017-06-01T08:29:30.318Z,685
2017-06-01T08:30:40.544Z,695
2017-06-01T08:31:50.153Z,760
2017-06-01T08:33:00.227Z,715
2017-06-01T08:34:10.461Z,670
2017-06-01T08:35:20.737Z,730
2017-06-01T08:36:30.034Z,700
2017-06-01T08:37:39.967Z,675
2017-06-01T08:38:50.029Z,665
2017-06-01T08:39:59.619Z,700
2017-06-01T08:41:09.551Z,665
2017-06-01T08:42:18.869Z,620
2017-06-01T08:43:27.895Z,560
2017-06-01T08:44:37.669Z,605
2017-06-01T08:45:47.597Z,565
2017-06-01T08:46:56.909Z,445
2017-06-01T08:48:06.231Z,265
2017-06-01T08:49:15.530Z,105
2017-06-01T08:50:25.528Z,80
2017-06-01T08:51:34.840Z,60
2017-06-01T08:52:44.176Z,60
2017-06-01T08:53:54.089Z,45
2017-06-01T08:55:03.716Z,40
2017-06-01T08:56:13.132Z,35
2017-06-01T08:57:22.744Z,35
2017-06-01T08:58:32.654Z,25
2017-06-01T08:59:42.924Z,20
2017-06-01T09:00:53.146Z,15
2017-06-01T09:02:03.181Z,15
2017-06-01T09:03:12.802Z,15
2017-06-01T09:04:22.727Z,15
2017-06-01T09:05:32.637Z,15
2017-06-01T09:06:42.249Z,15
2017-06-01T09:07:52.333Z,15
2017-06-01T09:09:02.338Z,15
2017-06-01T09:10:12.270Z,15
2017-06-01T09:11:22.182Z,15
2017-06-01T09:12:31.809Z,15
2017-06-01T09:13:42.080Z,15
2017-06-01T09:14:51.686Z,15
2017-06-01T09:16:01.295Z,15
2017-06-01T09:17:10.910Z,15
2017-06-01T09:18:20.815Z,10
2017-06-01T09:19:30.273Z,10
2017-06-01T09:20:40.213Z,10
2017-06-01T09:21:49.826Z,10
2017-06-01T09:22:59.733Z,10
2017-06-01T09:24:09.345Z,10
2017-06-01T09:25:19.418Z,10
2017-06-01T09:26:29.341Z,10
2017-06-01T09:27:39.553Z,10
2017-06-01T09:28:49.781Z,10
2017-06-01T09:29:59.687Z,10
2017-06-01T09:31:09.895Z,10
2017-06-01T09:32:19.489Z,10
2017-06-01T09:33:29.396Z,10
2017-06-01T09:34:38.697Z,10
2017-06-01T09:35:48.617Z,10
2017-06-01T09:36:58.538Z,15
2017-06-01T09:38:08.467Z,25
2017-06-01T09:39:17.769Z,35
2017-06-01T09:40:27.989Z,40
2017-06-01T09:41:37.593Z,45
2017-06-01T09:42:47.201Z,45
2017-06-01T09:43:56.805Z,40
2017-06-01T09:45:06.414Z,40
2017-06-01T09:46:16.036Z,35
2017-06-01T09:47:26.275Z,35
2017-06-01T09:48:36.317Z,30
2017-06-01T09:49:45.932Z,30
2017-06-01T09:50:55.554Z,30
2017-06-01T09:52:05.479Z,30
2017-06-01T09:53:15.094Z,30
2017-06-01T09:54:24.858Z,30
2017-06-01T09:55:34.801Z,30
2017-06-01T09:56:44.106Z,30
2017-06-01T09:57:53.423Z,30
2017-06-01T09:59:03.641Z,30
2017-06-01T10:00:13.098Z,35
2017-06-01T10:01:22.706Z,35
2017-06-01T10:02:32.318Z,35
2017-06-01T10:03:42.545Z,35
2017-06-01T10:04:52.158Z,35
2017-06-01T10:06:02.226Z,35
2017-06-01T10:07:11.854Z,35
2017-06-01T10:08:21.775Z,35
2017-06-01T10:09:31.990Z,35
2017-06-01T10:10:41.904Z,35
2017-06-01T10:11:51.812Z,35
2017-06-01T10:13:01.415Z,35
2017-06-01T10:14:11.635Z,35
2017-06-01T10:15:20.942Z,30
2017-06-01T10:16:30.573Z,30
2017-06-01T10:17:40.641Z,30
2017-06-01T10:18:50.566Z,30
2017-06-01T10:20:00.492Z,30
2017-06-01T10:21:10.110Z,30
2017-06-01T10:22:19.425Z,30
2017-06-01T10:23:29.182Z,30
2017-06-01T10:24:39.413Z,30
2017-06-01T10:25:48.719Z,30
2017-06-01T10:26:58.332Z,30
2017-06-01T10:28:07.946Z,30
2017-06-01T10:29:17.708Z,25
2017-06-01T10:30:27.699Z,30
2017-06-01T10:31:36.693Z,30
2017-06-01T10:32:46.666Z,25
2017-06-01T10:33:56.661Z,25
2017-06-01T10:35:06.128Z,20
2017-06-01T10:36:16.335Z,20
2017-06-01T10:37:25.944Z,20
2017-06-01T10:38:35.261Z,20
2017-06-01T10:39:45.192Z,20
2017-06-01T10:40:54.823Z,20
2017-06-01T10:42:04.728Z,15
2017-06-01T10:43:14.359Z,15
2017-06-01T10:44:24.019Z,15
2017-06-01T10:45:34.245Z,20
2017-06-01T10:46:44.222Z,20
2017-06-01T10:47:54.188Z,25
2017-06-01T10:49:04.411Z,25
2017-06-01T10:50:14.314Z,30
2017-06-01T10:51:24.239Z,30
2017-06-01T10:52:34.511Z,25
2017-06-01T10:53:43.820Z,25
2017-06-01T10:54:53.788Z,25
2017-06-01T10:56:03.392Z,25
2017-06-01T10:57:12.685Z,25
2017-06-01T10:58:22.703Z,25
2017-06-01T10:59:32.303Z,20
2017-06-01T11:00:42.219Z,15
2017-06-01T11:01:52.132Z,15
2017-06-01T11:03:02.061Z,15
2017-06-01T11:04:12.126Z,15
2017-06-01T11:05:22.350Z,15
2017-06-01T11:06:31.971Z,20
2017-06-01T11:07:41.891Z,20
2017-06-01T11:08:51.240Z,25
2017-06-01T11:10:01.587Z,25
2017-06-01T11:11:11.493Z,25
2017-06-01T11:12:21.725Z,25
2017-06-01T11:13:31.943Z,20
2017-06-01T11:14:41.852Z,25
2017-06-01T11:15:51.758Z,25
2017-06-01T11:17:01.370Z,25
2017-06-01T11:18:10.995Z,20
2017-06-01T11:19:20.309Z,20
2017-06-01T11:20:30.218Z,20
2017-06-01T11:21:39.888Z,20
2017-06-01T11:22:49.801Z,20
2017-06-01T11:24:00.013Z,20
2017-06-01T11:25:09.334Z,20
2017-06-01T11:26:19.555Z,20
2017-06-01T11:27:29.311Z,20
2017-06-01T11:28:39.548Z,20
2017-06-01T11:29:49.170Z,20
2017-06-01T11:30:58.473Z,20
2017-06-01T11:32:08.393Z,20
2017-06-01T11:33:18.158Z,25
2017-06-01T11:34:27.751Z,20
2017-06-01T11:35:37.680Z,20
2017-06-01T11:36:47.582Z,20
2017-06-01T11:37:57.507Z,20
2017-06-01T11:39:07.743Z,20
2017-06-01T11:40:17.653Z,20
2017-06-01T11:41:27.579Z,20
2017-06-01T11:42:37.494Z,20
2017-06-01T11:43:47.421Z,25
2017-06-01T11:44:57.731Z,25
2017-06-01T11:46:07.035Z,20
2017-06-01T11:47:17.260Z,20
2017-06-01T11:48:27.177Z,20
2017-06-01T11:49:37.121Z,25
2017-06-01T11:50:47.037Z,25
2017-06-01T11:51:56.949Z,25
2017-06-01T11:53:07.171Z,20
2017-06-01T11:54:17.082Z,20
2017-06-01T11:55:27.026Z,20
2017-06-01T11:56:36.165Z,20
2017-06-01T11:57:46.428Z,20
2017-06-01T11:58:56.651Z,20
2017-06-01T12:00:06.278Z,20
2017-06-01T12:01:15.271Z,20
2017-06-01T12:02:25.584Z,20
2017-06-01T12:03:35.807Z,25
2017-06-01T12:04:45.434Z,25
2017-06-01T12:05:55.072Z,20
2017-06-01T12:07:04.697Z,20
2017-06-01T12:08:14.738Z,20
2017-06-01T12:09:24.673Z,20
2017-06-01T12:10:34.595Z,20
2017-06-01T12:11:44.878Z,20
2017-06-01T12:12:54.500Z,20
2017-06-01T12:14:04.504Z,15
2017-06-01T12:15:14.170Z,15
2017-06-01T12:16:24.092Z,15
2017-06-01T12:17:34.008Z,15
2017-06-01T12:18:43.952Z,15
2017-06-01T12:19:54.325Z,15
2017-06-01T12:21:04.262Z,15
2017-06-01T12:22:14.493Z,15
2017-06-01T12:23:23.788Z,15
2017-06-01T12:24:33.086Z,15
2017-06-01T12:25:43.051Z,15
2017-06-01T12:26:52.994Z,15
2017-06-01T12:28:02.614Z,15
2017-06-01T12:29:12.837Z,15
2017-06-01T12:30:22.751Z,15
2017-06-01T12:31:32.975Z,15
2017-06-01T12:32:42.582Z,15
2017-06-01T12:33:52.799Z,15
2017-06-01T12:35:02.420Z,15
2017-06-01T12:36:12.632Z,15
2017-06-01T12:37:22.394Z,20
2017-06-01T12:38:31.749Z,20
2017-06-01T12:39:41.371Z,20
2017-06-01T12:40:50.701Z,20
2017-06-01T12:42:00.013Z,20
2017-06-01T12:43:10.079Z,20
2017-06-01T12:44:19.388Z,20
2017-06-01T12:45:29.317Z,15
2017-06-01T12:46:39.235Z,15
2017-06-01T12:47:49.473Z,15
2017-06-01T12:48:59.492Z,15
2017-06-01T12:50:09.122Z,15
2017-06-01T12:51:18.733Z,20
2017-06-01T12:52:27.726Z,20
2017-06-01T12:53:37.954Z,20
2017-06-01T12:54:47.260Z,20
2017-06-01T12:55:57.486Z,15
2017-06-01T12:57:07.706Z,15
2017-06-01T12:58:17.056Z,15
2017-06-01T12:59:26.996Z,15
2017-06-01T13:00:37.072Z,15
2017-06-01T13:01:46.686Z,15
2017-06-01T13:02:56.594Z,15
2017-06-01T13:04:06.253Z,15
2017-06-01T13:05:15.875Z,15
2017-06-01T13:06:26.126Z,15
2017-06-01T13:07:36.043Z,15
2017-06-01T13:08:46.266Z,20
2017-06-01T13:09:55.560Z,20
2017-06-01T13:11:05.473Z,20
2017-06-01T13:12:15.491Z,20
2017-06-01T13:13:25.455Z,15
2017-06-01T13:14:34.752Z,15
2017-06-01T13:15:44.992Z,15
2017-06-01T13:16:54.290Z,20
2017-06-01T13:18:04.003Z,20
2017-06-01T13:19:13.933Z,20
2017-06-01T13:20:23.575Z,15
2017-06-01T13:21:33.493Z,15
2017-06-01T13:22:43.136Z,20
2017-06-01T13:23:53.053Z,20
2017-06-01T13:25:02.658Z,20
2017-06-01T13:26:12.573Z,20
2017-06-01T13:27:22.501Z,15
2017-06-01T13:28:32.420Z,20
2017-06-01T13:29:41.884Z,15
2017-06-01T13:30:51.505Z,15
2017-06-01T13:32:01.112Z,15
2017-06-01T13:33:10.724Z,15
2017-06-01T13:34:20.021Z,15
2017-06-01T13:35:30.242Z,20
2017-06-01T13:36:39.847Z,20
2017-06-01T13:37:49.769Z,15
2017-06-01T13:38:59.697Z,15
2017-06-01T13:40:09.670Z,15
2017-06-01T13:41:19.330Z,15
2017-06-01T13:42:29.301Z,15
2017-06-01T13:43:39.538Z,15
2017-06-01T13:44:49.479Z,15
2017-06-01T13:45:59.386Z,15
2017-06-01T13:47:09.052Z,20
2017-06-01T13:48:19.317Z,20
2017-06-01T13:49:29.241Z,20
2017-06-01T13:50:38.570Z,20
2017-06-01T13:51:48.500Z,20
2017-06-01T13:52:58.127Z,20
2017-06-01T13:54:08.362Z,20
2017-06-01T13:55:17.990Z,20
2017-06-01T13:56:26.996Z,20
2017-06-01T13:57:36.905Z,20
2017-06-01T13:58:46.661Z,20
2017-06-01T13:59:56.605Z,20
2017-06-01T14:01:06.536Z,20
2017-06-01T14:02:16.165Z,20
2017-06-01T14:03:25.165Z,20
2017-06-01T14:04:35.482Z,20
2017-06-01T14:05:45.393Z,20
2017-06-01T14:06:55.320Z,20
2017-06-01T14:08:05.384Z,20
2017-06-01T14:09:15.013Z,20
2017-06-01T14:10:25.362Z,20
2017-06-01T14:11:35.276Z,20
2017-06-01T14:12:45.502Z,20
2017-06-01T14:13:55.737Z,20
2017-06-01T14:15:05.347Z,20
2017-06-01T14:16:15.612Z,20
2017-06-01T14:17:25.842Z,20
2017-06-01T14:18:35.757Z,20
2017-06-01T14:19:46.005Z,20
2017-06-01T14:20:55.910Z,20
2017-06-01T14:22:05.941Z,20
2017-06-01T14:23:15.254Z,20
2017-06-01T14:24:24.579Z,20
2017-06-01T14:25:34.191Z,20
2017-06-01T14:26:44.102Z,20
2017-06-01T14:27:54.352Z,20
2017-06-01T14:29:03.966Z,20
2017-06-01T14:30:13.888Z,20
2017-06-01T14:31:23.799Z,15
2017-06-01T14:32:33.731Z,15
2017-06-01T14:33:43.502Z,20
2017-06-01T14:34:53.146Z,20
2017-06-01T14:36:03.066Z,20
2017-06-01T14:37:12.361Z,20
2017-06-01T14:38:21.961Z,20
2017-06-01T14:39:31.560Z,20
2017-06-01T14:40:41.485Z,20
2017-06-01T14:41:51.126Z,20
2017-06-01T14:43:01.072Z,20
2017-06-01T14:44:10.689Z,20
2017-06-01T14:45:19.990Z,20
2017-06-01T14:46:30.217Z,20
2017-06-01T14:47:40.150Z,15
2017-06-01T14:48:49.144Z,15
2017-06-01T14:49:58.759Z,15
2017-06-01T14:51:08.847Z,15
2017-06-01T14:52:18.760Z,15
2017-06-01T14:53:28.984Z,20
2017-06-01T14:54:38.606Z,20
2017-06-01T14:55:48.526Z,20
2017-06-01T14:56:58.899Z,15
2017-06-01T14:58:08.519Z,15
2017-06-01T14:59:17.814Z,15
2017-06-01T15:00:27.443Z,20
2017-06-01T15:01:36.751Z,15
2017-06-01T15:02:46.659Z,15
2017-06-01T15:03:56.585Z,15
2017-06-01T15:05:06.797Z,15
2017-06-01T15:06:16.719Z,15
2017-06-01T15:07:26.958Z,15
2017-06-01T15:08:36.309Z,15
2017-06-01T15:09:46.534Z,15
2017-06-01T15:10:56.159Z,15
2017-06-01T15:12:06.081Z,20
2017-06-01T15:13:16.000Z,15
2017-06-01T15:14:25.999Z,15
2017-06-01T15:15:35.941Z,15
2017-06-01T15:16:45.921Z,20
2017-06-01T15:17:55.557Z,20
2017-06-01T15:19:04.859Z,20
2017-06-01T15:20:14.660Z,15
2017-06-01T15:21:24.591Z,15
2017-06-01T15:22:34.842Z,15
2017-06-01T15:23:45.068Z,15
2017-06-01T15:24:54.993Z,15
2017-06-01T15:26:05.364Z,10
2017-06-01T15:27:14.972Z,10
2017-06-01T15:28:24.912Z,10
2017-06-01T15:29:35.154Z,10
2017-06-01T15:30:45.072Z,10
2017-06-01T15:31:54.548Z,15
2017-06-01T15:33:03.852Z,15
2017-06-01T15:34:13.771Z,15
2017-06-01T15:35:23.986Z,15
2017-06-01T15:36:33.669Z,15
2017-06-01T15:37:43.605Z,15
2017-06-01T15:38:53.548Z,15
2017-06-01T15:40:03.458Z,15
2017-06-01T15:41:13.411Z,15
2017-06-01T15:42:22.397Z,15
2017-06-01T15:43:32.010Z,15
2017-06-01T15:44:41.931Z,15
2017-06-01T15:45:51.548Z,15
2017-06-01T15:47:01.157Z,15
2017-06-01T15:48:10.777Z,15
2017-06-01T15:49:20.391Z,15
2017-06-01T15:50:29.691Z,15
2017-06-01T15:51:39.387Z,15
2017-06-01T15:52:49.318Z,15
2017-06-01T15:53:58.930Z,10
2017-06-01T15:55:07.989Z,10
2017-06-01T15:56:17.916Z,10
2017-06-01T15:57:27.932Z,10
2017-06-01T15:58:37.854Z,10
2017-06-01T15:59:47.154Z,10
2017-06-01T16:00:57.431Z,10
2017-06-01T16:02:07.691Z,15
2017-06-01T16:03:17.018Z,15
2017-06-01T16:04:26.623Z,15
2017-06-01T16:05:36.291Z,15
2017-06-01T16:06:45.974Z,15
2017-06-01T16:07:55.757Z,15
2017-06-01T16:09:05.668Z,15
2017-06-01T16:10:15.922Z,15
2017-06-01T16:11:25.860Z,15
2017-06-01T16:12:36.277Z,10
2017-06-01T16:13:45.916Z,10
2017-06-01T16:14:55.569Z,10
2017-06-01T16:16:05.204Z,10
2017-06-01T16:17:15.111Z,10
2017-06-01T16:18:25.170Z,10
2017-06-01T16:19:34.788Z,10
2017-06-01T16:20:44.404Z,10
2017-06-01T16:21:54.016Z,10
2017-06-01T16:23:03.922Z,15
2017-06-01T16:24:13.586Z,15
2017-06-01T16:25:23.550Z,15
2017-06-01T16:26:33.178Z,15
2017-06-01T16:27:43.091Z,10
2017-06-01T16:28:52.389Z,10
2017-06-01T16:30:02.459Z,10
2017-06-01T16:31:12.373Z,10
2017-06-01T16:32:21.971Z,10
2017-06-01T16:33:31.586Z,10
2017-06-01T16:34:40.915Z,10
2017-06-01T16:35:50.999Z,10
2017-06-01T16:37:01.274Z,10
2017-06-01T16:38:10.906Z,10
2017-06-01T16:39:21.149Z,10
2017-06-01T16:40:30.183Z,10
2017-06-01T16:41:40.226Z,10
2017-06-01T16:42:49.901Z,10